Sacramento, California
Traffic Map
Current Weather Conditions
Sacramento, California
Clear
Clear
29°
Feels Like: 29°
Wind Chill: 29° Ceiling: Unl
Heat Index: 29° Visibility: 10mi
Dew Point: 13° Wind: 0mph
Humidity: 37% Direction: ° ()
Pressure: 29.9in Gusts: 0mph
Raw Report DataKSAC 282353Z AUTO 00000KT 10SM CLR 29/13 A2990 RMK AO2 SLP125 T02940133 10306 20211 58015 TSNO
Traffic Incident Summary
Active as of:
Severity:
Category:
InformationThere was an issue retrieving the traffic information for this location. Please try a different location or try again shortly.
Advertisements
Track Severe Weather on mobile